sensor_id;sensor_type;location;lat;lon;timestamp;temperature;humidity
22682;DHT22;11508;50.856;4.380;2023-02-20T00:00:42;7.50;99.90
22682;DHT22;11508;50.856;4.380;2023-02-20T00:03:08;7.40;99.90
22682;DHT22;11508;50.856;4.380;2023-02-20T00:05:33;7.40;99.90
22682;DHT22;11508;50.856;4.380;2023-02-20T00:07:59;7.40;99.90
22682;DHT22;11508;50.856;4.380;2023-02-20T00:10:25;7.40;99.90
22682;DHT22;11508;50.856;4.380;2023-02-20T00:12:51;7.40;99.90
22682;DHT22;11508;50.856;4.380;2023-02-20T00:15:18;7.30;99.90
22682;DHT22;11508;50.856;4.380;2023-02-20T00:17:45;7.30;99.90
22682;DHT22;11508;50.856;4.380;2023-02-20T00:20:19;7.30;99.90
22682;DHT22;11508;50.856;4.380;2023-02-20T00:22:46;7.30;99.90
22682;DHT22;11508;50.856;4.380;2023-02-20T00:25:14;7.30;99.90
22682;DHT22;11508;50.856;4.380;2023-02-20T00:27:41;7.30;99.90
22682;DHT22;11508;50.856;4.380;2023-02-20T00:30:09;7.30;99.90
22682;DHT22;11508;50.856;4.380;2023-02-20T00:32:35;7.30;99.90
22682;DHT22;11508;50.856;4.380;2023-02-20T00:35:01;7.20;99.90
22682;DHT22;11508;50.856;4.380;2023-02-20T00:37:27;7.10;99.90
22682;DHT22;11508;50.856;4.380;2023-02-20T00:39:52;7.20;99.90
22682;DHT22;11508;50.856;4.380;2023-02-20T00:42:18;7.20;99.90
22682;DHT22;11508;50.856;4.380;2023-02-20T00:44:43;7.10;99.90
22682;DHT22;11508;50.856;4.380;2023-02-20T00:47:09;7.10;99.90
22682;DHT22;11508;50.856;4.380;2023-02-20T00:49:35;7.10;99.90
22682;DHT22;11508;50.856;4.380;2023-02-20T00:52:00;7.10;99.90
22682;DHT22;11508;50.856;4.380;2023-02-20T00:54:26;7.10;99.90
22682;DHT22;11508;50.856;4.380;2023-02-20T00:56:51;7.00;99.90
22682;DHT22;11508;50.856;4.380;2023-02-20T00:59:17;7.00;99.90
22682;DHT22;11508;50.856;4.380;2023-02-20T01:01:43;7.10;99.90
22682;DHT22;11508;50.856;4.380;2023-02-20T01:04:08;7.10;99.90
22682;DHT22;11508;50.856;4.380;2023-02-20T01:06:34;7.00;99.90
22682;DHT22;11508;50.856;4.380;2023-02-20T01:09:00;7.10;99.90
22682;DHT22;11508;50.856;4.380;2023-02-20T01:11:25;7.00;99.90
22682;DHT22;11508;50.856;4.380;2023-02-20T01:13:51;7.00;99.90
22682;DHT22;11508;50.856;4.380;2023-02-20T01:16:17;6.90;99.90
22682;DHT22;11508;50.856;4.380;2023-02-20T01:18:43;6.90;99.90
22682;DHT22;11508;50.856;4.380;2023-02-20T01:21:09;6.80;99.90
22682;DHT22;11508;50.856;4.380;2023-02-20T01:23:34;6.80;99.90
22682;DHT22;11508;50.856;4.380;2023-02-20T01:26:00;6.70;99.90
22682;DHT22;11508;50.856;4.380;2023-02-20T01:28:25;6.80;99.90
22682;DHT22;11508;50.856;4.380;2023-02-20T01:30:51;6.70;99.90
22682;DHT22;11508;50.856;4.380;2023-02-20T01:33:17;6.80;99.90
22682;DHT22;11508;50.856;4.380;2023-02-20T01:35:42;6.80;99.90
22682;DHT22;11508;50.856;4.380;2023-02-20T01:38:08;6.80;99.90
22682;DHT22;11508;50.856;4.380;2023-02-20T01:40:34;6.80;99.90
22682;DHT22;11508;50.856;4.380;2023-02-20T01:43:00;6.80;99.90
22682;DHT22;11508;50.856;4.380;2023-02-20T01:45:35;6.80;99.90
22682;DHT22;11508;50.856;4.380;2023-02-20T01:48:01;6.80;99.90
22682;DHT22;11508;50.856;4.380;2023-02-20T01:50:41;6.80;99.90
22682;DHT22;11508;50.856;4.380;2023-02-20T01:53:11;6.90;99.90
22682;DHT22;11508;50.856;4.380;2023-02-20T01:55:53;6.80;99.90
22682;DHT22;11508;50.856;4.380;2023-02-20T01:58:37;6.80;99.90
22682;DHT22;11508;50.856;4.380;2023-02-20T02:01:04;6.90;99.90
22682;DHT22;11508;50.856;4.380;2023-02-20T02:03:33;7.00;99.90
22682;DHT22;11508;50.856;4.380;2023-02-20T02:06:03;7.00;99.90
22682;DHT22;11508;50.856;4.380;2023-02-20T02:08:31;6.90;99.90
22682;DHT22;11508;50.856;4.380;2023-02-20T02:11:07;7.00;99.90
22682;DHT22;11508;50.856;4.380;2023-02-20T02:13:35;7.00;99.90
22682;DHT22;11508;50.856;4.380;2023-02-20T02:16:28;7.00;99.90
22682;DHT22;11508;50.856;4.380;2023-02-20T02:28:01;7.10;99.90
22682;DHT22;11508;50.856;4.380;2023-02-20T02:41:05;7.30;99.90
22682;DHT22;11508;50.856;4.380;2023-02-20T02:44:06;7.40;99.90
22682;DHT22;11508;50.856;4.380;2023-02-20T02:46:54;7.40;99.90
22682;DHT22;11508;50.856;4.380;2023-02-20T02:49:29;7.50;99.90
22682;DHT22;11508;50.856;4.380;2023-02-20T02:51:58;7.50;99.90
22682;DHT22;11508;50.856;4.380;2023-02-20T02:54:26;7.50;99.90
22682;DHT22;11508;50.856;4.380;2023-02-20T02:56:53;7.50;99.90
22682;DHT22;11508;50.856;4.380;2023-02-20T02:59:26;7.40;99.90
22682;DHT22;11508;50.856;4.380;2023-02-20T03:01:57;7.40;99.90
22682;DHT22;11508;50.856;4.380;2023-02-20T03:04:26;7.40;99.90
22682;DHT22;11508;50.856;4.380;2023-02-20T03:06:56;7.50;99.90
22682;DHT22;11508;50.856;4.380;2023-02-20T03:09:34;7.50;99.90
22682;DHT22;11508;50.856;4.380;2023-02-20T03:12:02;7.40;99.90
22682;DHT22;11508;50.856;4.380;2023-02-20T03:14:40;7.40;99.90
22682;DHT22;11508;50.856;4.380;2023-02-20T03:17:29;7.50;99.90
22682;DHT22;11508;50.856;4.380;2023-02-20T03:20:02;7.50;99.90
22682;DHT22;11508;50.856;4.380;2023-02-20T03:22:45;7.50;99.90
22682;DHT22;11508;50.856;4.380;2023-02-20T03:25:23;7.50;99.90
22682;DHT22;11508;50.856;4.380;2023-02-20T03:28:00;7.50;99.90
22682;DHT22;11508;50.856;4.380;2023-02-20T03:30:31;7.40;99.90
22682;DHT22;11508;50.856;4.380;2023-02-20T03:35:53;7.50;99.90
22682;DHT22;11508;50.856;4.380;2023-02-20T03:38:41;7.60;99.90
22682;DHT22;11508;50.856;4.380;2023-02-20T03:41:27;7.50;99.90
22682;DHT22;11508;50.856;4.380;2023-02-20T03:44:14;7.50;99.90
22682;DHT22;11508;50.856;4.380;2023-02-20T03:46:43;7.50;99.90
22682;DHT22;11508;50.856;4.380;2023-02-20T03:49:13;7.40;99.90
22682;DHT22;11508;50.856;4.380;2023-02-20T03:51:40;7.50;99.90
22682;DHT22;11508;50.856;4.380;2023-02-20T03:54:06;7.50;99.90
22682;DHT22;11508;50.856;4.380;2023-02-20T03:56:44;7.50;99.90
22682;DHT22;11508;50.856;4.380;2023-02-20T03:59:24;7.60;99.90
22682;DHT22;11508;50.856;4.380;2023-02-20T04:01:58;7.60;99.90
22682;DHT22;11508;50.856;4.380;2023-02-20T04:04:29;7.60;99.90
22682;DHT22;11508;50.856;4.380;2023-02-20T04:06:59;7.70;99.90
22682;DHT22;11508;50.856;4.380;2023-02-20T04:09:28;7.70;99.90
22682;DHT22;11508;50.856;4.380;2023-02-20T04:12:03;7.60;99.90
22682;DHT22;11508;50.856;4.380;2023-02-20T04:14:31;7.60;99.90
22682;DHT22;11508;50.856;4.380;2023-02-20T04:17:02;7.80;99.90
22682;DHT22;11508;50.856;4.380;2023-02-20T04:19:31;7.70;99.90
22682;DHT22;11508;50.856;4.380;2023-02-20T04:22:00;7.70;99.90
22682;DHT22;11508;50.856;4.380;2023-02-20T04:24:39;7.70;99.90
22682;DHT22;11508;50.856;4.380;2023-02-20T04:27:07;7.70;99.90
22682;DHT22;11508;50.856;4.380;2023-02-20T04:29:33;7.70;99.90
22682;DHT22;11508;50.856;4.380;2023-02-20T04:31:58;7.70;99.90
22682;DHT22;11508;50.856;4.380;2023-02-20T04:34:24;7.70;99.90
22682;DHT22;11508;50.856;4.380;2023-02-20T04:37:28;7.70;99.90
22682;DHT22;11508;50.856;4.380;2023-02-20T04:39:47;7.70;99.90
22682;DHT22;11508;50.856;4.380;2023-02-20T04:42:13;7.70;99.90
22682;DHT22;11508;50.856;4.380;2023-02-20T04:44:40;7.70;99.90
22682;DHT22;11508;50.856;4.380;2023-02-20T04:47:13;7.80;99.90
22682;DHT22;11508;50.856;4.380;2023-02-20T04:49:39;7.70;99.90
22682;DHT22;11508;50.856;4.380;2023-02-20T04:52:04;7.70;99.90
22682;DHT22;11508;50.856;4.380;2023-02-20T04:54:30;7.70;99.90
22682;DHT22;11508;50.856;4.380;2023-02-20T04:56:56;7.80;99.90
22682;DHT22;11508;50.856;4.380;2023-02-20T04:59:22;7.70;99.90
22682;DHT22;11508;50.856;4.380;2023-02-20T05:01:48;7.70;99.90
22682;DHT22;11508;50.856;4.380;2023-02-20T05:04:19;7.70;99.90
22682;DHT22;11508;50.856;4.380;2023-02-20T05:06:49;7.70;99.90
22682;DHT22;11508;50.856;4.380;2023-02-20T05:09:15;7.70;99.90
22682;DHT22;11508;50.856;4.380;2023-02-20T05:11:41;7.70;99.90
22682;DHT22;11508;50.856;4.380;2023-02-20T05:14:07;7.70;99.90
22682;DHT22;11508;50.856;4.380;2023-02-20T05:16:33;7.80;99.90
22682;DHT22;11508;50.856;4.380;2023-02-20T05:18:59;7.70;99.90
22682;DHT22;11508;50.856;4.380;2023-02-20T05:21:27;7.70;99.90
22682;DHT22;11508;50.856;4.380;2023-02-20T05:24:12;7.70;99.90
22682;DHT22;11508;50.856;4.380;2023-02-20T05:26:38;7.70;99.90
22682;DHT22;11508;50.856;4.380;2023-02-20T05:29:05;7.70;99.90
22682;DHT22;11508;50.856;4.380;2023-02-20T05:31:30;7.70;99.90
22682;DHT22;11508;50.856;4.380;2023-02-20T05:33:56;7.70;99.90
22682;DHT22;11508;50.856;4.380;2023-02-20T05:36:22;7.60;99.90
22682;DHT22;11508;50.856;4.380;2023-02-20T05:38:47;7.60;99.90
22682;DHT22;11508;50.856;4.380;2023-02-20T05:41:14;7.70;99.90
22682;DHT22;11508;50.856;4.380;2023-02-20T05:43:40;7.70;99.90
22682;DHT22;11508;50.856;4.380;2023-02-20T05:46:06;7.70;99.90
22682;DHT22;11508;50.856;4.380;2023-02-20T05:48:31;7.60;99.90
22682;DHT22;11508;50.856;4.380;2023-02-20T05:50:57;7.60;99.90
22682;DHT22;11508;50.856;4.380;2023-02-20T05:53:23;7.70;99.90
22682;DHT22;11508;50.856;4.380;2023-02-20T05:55:51;7.70;99.90
22682;DHT22;11508;50.856;4.380;2023-02-20T05:58:16;7.70;99.90
22682;DHT22;11508;50.856;4.380;2023-02-20T06:00:42;7.80;99.90
22682;DHT22;11508;50.856;4.380;2023-02-20T06:03:08;7.80;99.90
22682;DHT22;11508;50.856;4.380;2023-02-20T06:05:35;7.70;99.90
22682;DHT22;11508;50.856;4.380;2023-02-20T06:08:00;7.70;99.90
22682;DHT22;11508;50.856;4.380;2023-02-20T06:10:26;7.60;99.90
22682;DHT22;11508;50.856;4.380;2023-02-20T06:12:52;7.50;99.90
22682;DHT22;11508;50.856;4.380;2023-02-20T06:15:18;7.50;99.90
22682;DHT22;11508;50.856;4.380;2023-02-20T06:17:43;7.50;99.90
22682;DHT22;11508;50.856;4.380;2023-02-20T06:20:09;7.50;99.90
22682;DHT22;11508;50.856;4.380;2023-02-20T06:22:35;7.50;99.90
22682;DHT22;11508;50.856;4.380;2023-02-20T06:25:07;7.40;99.90
22682;DHT22;11508;50.856;4.380;2023-02-20T06:28:04;7.50;99.90
22682;DHT22;11508;50.856;4.380;2023-02-20T06:30:32;7.50;99.90
22682;DHT22;11508;50.856;4.380;2023-02-20T06:32:59;7.60;99.90
22682;DHT22;11508;50.856;4.380;2023-02-20T06:35:26;7.50;99.90
22682;DHT22;11508;50.856;4.380;2023-02-20T06:38:05;7.50;99.90
22682;DHT22;11508;50.856;4.380;2023-02-20T06:43:47;7.50;99.90
22682;DHT22;11508;50.856;4.380;2023-02-20T06:46:15;7.50;99.90
22682;DHT22;11508;50.856;4.380;2023-02-20T06:48:55;7.50;99.90
22682;DHT22;11508;50.856;4.380;2023-02-20T06:51:51;7.50;99.90
22682;DHT22;11508;50.856;4.380;2023-02-20T06:54:25;7.50;99.90
22682;DHT22;11508;50.856;4.380;2023-02-20T06:56:51;7.50;99.90
22682;DHT22;11508;50.856;4.380;2023-02-20T06:59:19;7.50;99.90
22682;DHT22;11508;50.856;4.380;2023-02-20T07:01:57;7.50;99.90
22682;DHT22;11508;50.856;4.380;2023-02-20T07:04:53;7.40;99.90
22682;DHT22;11508;50.856;4.380;2023-02-20T07:07:20;7.40;99.90
22682;DHT22;11508;50.856;4.380;2023-02-20T07:09:46;7.40;99.90
22682;DHT22;11508;50.856;4.380;2023-02-20T07:12:19;7.50;99.90
22682;DHT22;11508;50.856;4.380;2023-02-20T07:14:52;7.60;99.90
22682;DHT22;11508;50.856;4.380;2023-02-20T07:17:19;7.60;99.90
22682;DHT22;11508;50.856;4.380;2023-02-20T07:19:46;7.50;99.90
22682;DHT22;11508;50.856;4.380;2023-02-20T07:22:12;7.50;99.90
22682;DHT22;11508;50.856;4.380;2023-02-20T07:24:39;7.60;99.90
22682;DHT22;11508;50.856;4.380;2023-02-20T07:27:08;7.60;99.90
22682;DHT22;11508;50.856;4.380;2023-02-20T07:29:36;7.60;99.90
22682;DHT22;11508;50.856;4.380;2023-02-20T07:32:06;7.60;99.90
22682;DHT22;11508;50.856;4.380;2023-02-20T07:34:40;7.70;99.90
22682;DHT22;11508;50.856;4.380;2023-02-20T07:37:21;7.80;99.90
22682;DHT22;11508;50.856;4.380;2023-02-20T07:39:54;7.80;99.90
22682;DHT22;11508;50.856;4.380;2023-02-20T07:42:22;7.90;99.90
22682;DHT22;11508;50.856;4.380;2023-02-20T07:44:52;8.00;99.90
22682;DHT22;11508;50.856;4.380;2023-02-20T07:47:37;8.00;99.90
22682;DHT22;11508;50.856;4.380;2023-02-20T07:50:05;7.90;99.90
22682;DHT22;11508;50.856;4.380;2023-02-20T07:52:51;7.80;99.90
22682;DHT22;11508;50.856;4.380;2023-02-20T07:55:29;7.80;99.90
22682;DHT22;11508;50.856;4.380;2023-02-20T07:57:56;7.90;99.90
22682;DHT22;11508;50.856;4.380;2023-02-20T08:00:25;7.80;99.90
22682;DHT22;11508;50.856;4.380;2023-02-20T08:02:53;8.00;99.90
22682;DHT22;11508;50.856;4.380;2023-02-20T08:05:22;8.10;99.90
22682;DHT22;11508;50.856;4.380;2023-02-20T08:07:50;8.20;99.90
22682;DHT22;11508;50.856;4.380;2023-02-20T08:10:28;8.20;99.90
22682;DHT22;11508;50.856;4.380;2023-02-20T08:13:22;8.10;99.90
22682;DHT22;11508;50.856;4.380;2023-02-20T08:15:57;8.10;99.90
22682;DHT22;11508;50.856;4.380;2023-02-20T08:18:23;8.00;99.90
22682;DHT22;11508;50.856;4.380;2023-02-20T08:20:57;8.10;99.90
22682;DHT22;11508;50.856;4.380;2023-02-20T08:23:24;8.10;99.90
22682;DHT22;11508;50.856;4.380;2023-02-20T08:25:50;8.20;99.90
22682;DHT22;11508;50.856;4.380;2023-02-20T08:28:46;8.20;99.90
22682;DHT22;11508;50.856;4.380;2023-02-20T08:31:37;8.20;99.90
22682;DHT22;11508;50.856;4.380;2023-02-20T08:34:26;8.20;99.90
22682;DHT22;11508;50.856;4.380;2023-02-20T08:36:51;8.10;99.90
22682;DHT22;11508;50.856;4.380;2023-02-20T08:39:17;8.20;99.90
22682;DHT22;11508;50.856;4.380;2023-02-20T08:41:46;8.30;99.90
22682;DHT22;11508;50.856;4.380;2023-02-20T08:44:13;8.20;99.90
22682;DHT22;11508;50.856;4.380;2023-02-20T08:46:49;8.20;99.90
22682;DHT22;11508;50.856;4.380;2023-02-20T08:49:16;8.20;99.90
22682;DHT22;11508;50.856;4.380;2023-02-20T08:51:44;8.20;99.90
22682;DHT22;11508;50.856;4.380;2023-02-20T08:54:18;8.20;99.90
22682;DHT22;11508;50.856;4.380;2023-02-20T08:57:21;8.10;99.90
22682;DHT22;11508;50.856;4.380;2023-02-20T08:59:53;8.10;99.90
22682;DHT22;11508;50.856;4.380;2023-02-20T09:02:22;8.20;99.90
22682;DHT22;11508;50.856;4.380;2023-02-20T09:05:18;8.20;99.90
22682;DHT22;11508;50.856;4.380;2023-02-20T09:07:45;8.20;99.90
22682;DHT22;11508;50.856;4.380;2023-02-20T09:10:19;8.30;99.90
22682;DHT22;11508;50.856;4.380;2023-02-20T09:12:51;8.40;99.90
22682;DHT22;11508;50.856;4.380;2023-02-20T09:15:20;8.50;99.90
22682;DHT22;11508;50.856;4.380;2023-02-20T09:20:59;8.10;99.90
22682;DHT22;11508;50.856;4.380;2023-02-20T09:23:32;8.20;99.90
22682;DHT22;11508;50.856;4.380;2023-02-20T09:26:04;8.20;99.90
22682;DHT22;11508;50.856;4.380;2023-02-20T09:28:31;8.30;99.90
22682;DHT22;11508;50.856;4.380;2023-02-20T09:30:58;8.40;99.90
22682;DHT22;11508;50.856;4.380;2023-02-20T09:36:22;8.10;99.90
22682;DHT22;11508;50.856;4.380;2023-02-20T09:38:49;8.20;99.90
22682;DHT22;11508;50.856;4.380;2023-02-20T09:41:45;8.20;99.90
22682;DHT22;11508;50.856;4.380;2023-02-20T09:47:18;8.30;99.90
22682;DHT22;11508;50.856;4.380;2023-02-20T09:49:47;8.30;99.90
22682;DHT22;11508;50.856;4.380;2023-02-20T09:52:16;8.40;99.90
22682;DHT22;11508;50.856;4.380;2023-02-20T09:55:02;8.50;99.90
22682;DHT22;11508;50.856;4.380;2023-02-20T09:57:29;8.50;99.90
22682;DHT22;11508;50.856;4.380;2023-02-20T10:00:21;8.60;99.90
22682;DHT22;11508;50.856;4.380;2023-02-20T10:05:57;8.60;99.90
22682;DHT22;11508;50.856;4.380;2023-02-20T10:08:27;8.60;99.90
22682;DHT22;11508;50.856;4.380;2023-02-20T10:10:59;8.50;99.90
22682;DHT22;11508;50.856;4.380;2023-02-20T10:13:50;8.60;99.90
22682;DHT22;11508;50.856;4.380;2023-02-20T10:17:17;8.60;99.90
22682;DHT22;11508;50.856;4.380;2023-02-20T10:23:02;8.40;99.90
22682;DHT22;11508;50.856;4.380;2023-02-20T10:25:53;8.40;99.90
22682;DHT22;11508;50.856;4.380;2023-02-20T10:28:39;8.60;99.90
22682;DHT22;11508;50.856;4.380;2023-02-20T10:31:44;8.80;99.90
22682;DHT22;11508;50.856;4.380;2023-02-20T10:34:35;8.80;99.90
22682;DHT22;11508;50.856;4.380;2023-02-20T10:37:18;8.80;99.90
22682;DHT22;11508;50.856;4.380;2023-02-20T10:45:16;8.90;99.90
22682;DHT22;11508;50.856;4.380;2023-02-20T10:47:48;8.90;99.90
22682;DHT22;11508;50.856;4.380;2023-02-20T10:50:24;8.90;99.90
22682;DHT22;11508;50.856;4.380;2023-02-20T10:56:18;9.00;99.90
22682;DHT22;11508;50.856;4.380;2023-02-20T11:01:08;8.90;99.90
22682;DHT22;11508;50.856;4.380;2023-02-20T11:03:58;8.80;99.90
22682;DHT22;11508;50.856;4.380;2023-02-20T11:06:32;8.80;99.90
22682;DHT22;11508;50.856;4.380;2023-02-20T11:08:58;8.70;99.90
22682;DHT22;11508;50.856;4.380;2023-02-20T11:11:28;8.70;99.90
22682;DHT22;11508;50.856;4.380;2023-02-20T11:13:58;8.80;99.90
22682;DHT22;11508;50.856;4.380;2023-02-20T11:16:31;8.80;99.90
22682;DHT22;11508;50.856;4.380;2023-02-20T11:19:07;8.70;99.90
22682;DHT22;11508;50.856;4.380;2023-02-20T11:21:40;8.70;99.90
22682;DHT22;11508;50.856;4.380;2023-02-20T11:24:25;8.80;99.90
22682;DHT22;11508;50.856;4.380;2023-02-20T11:26:59;8.70;99.90
22682;DHT22;11508;50.856;4.380;2023-02-20T11:29:38;8.80;99.90
22682;DHT22;11508;50.856;4.380;2023-02-20T11:32:39;8.70;99.90
22682;DHT22;11508;50.856;4.380;2023-02-20T11:37:44;8.80;99.90
22682;DHT22;11508;50.856;4.380;2023-02-20T11:40:34;8.70;99.90
22682;DHT22;11508;50.856;4.380;2023-02-20T11:43:15;8.70;99.90
22682;DHT22;11508;50.856;4.380;2023-02-20T11:45:43;8.90;99.90
22682;DHT22;11508;50.856;4.380;2023-02-20T11:48:19;8.90;99.90
22682;DHT22;11508;50.856;4.380;2023-02-20T11:50:50;8.90;99.90
22682;DHT22;11508;50.856;4.380;2023-02-20T11:53:22;8.90;99.90
22682;DHT22;11508;50.856;4.380;2023-02-20T11:56:06;9.00;99.90
22682;DHT22;11508;50.856;4.380;2023-02-20T11:58:33;9.00;99.90
22682;DHT22;11508;50.856;4.380;2023-02-20T12:00:59;9.10;99.90
22682;DHT22;11508;50.856;4.380;2023-02-20T12:03:26;8.90;99.90
22682;DHT22;11508;50.856;4.380;2023-02-20T12:05:54;8.80;99.90
22682;DHT22;11508;50.856;4.380;2023-02-20T12:11:16;9.00;99.90
22682;DHT22;11508;50.856;4.380;2023-02-20T12:13:46;9.10;99.90
22682;DHT22;11508;50.856;4.380;2023-02-20T12:21:55;9.10;99.90
22682;DHT22;11508;50.856;4.380;2023-02-20T12:38:59;9.10;99.90
22682;DHT22;11508;50.856;4.380;2023-02-20T12:41:47;9.30;99.90
22682;DHT22;11508;50.856;4.380;2023-02-20T12:57:46;9.70;99.90
22682;DHT22;11508;50.856;4.380;2023-02-20T13:00:26;9.40;99.90
22682;DHT22;11508;50.856;4.380;2023-02-20T13:03:21;9.30;99.90
22682;DHT22;11508;50.856;4.380;2023-02-20T13:05:49;9.20;99.90
22682;DHT22;11508;50.856;4.380;2023-02-20T13:11:07;9.30;99.90
22682;DHT22;11508;50.856;4.380;2023-02-20T13:16:55;9.30;99.90
22682;DHT22;11508;50.856;4.380;2023-02-20T13:19:51;9.50;99.90
22682;DHT22;11508;50.856;4.380;2023-02-20T13:22:19;9.50;99.90
22682;DHT22;11508;50.856;4.380;2023-02-20T13:24:45;9.40;99.90
22682;DHT22;11508;50.856;4.380;2023-02-20T13:27:30;9.40;99.90
22682;DHT22;11508;50.856;4.380;2023-02-20T13:30:19;9.40;99.90
22682;DHT22;11508;50.856;4.380;2023-02-20T13:32:45;9.50;99.90
22682;DHT22;11508;50.856;4.380;2023-02-20T13:36:13;9.50;99.90
22682;DHT22;11508;50.856;4.380;2023-02-20T13:38:22;9.30;99.90
22682;DHT22;11508;50.856;4.380;2023-02-20T13:53:45;9.40;99.90
22682;DHT22;11508;50.856;4.380;2023-02-20T13:56:22;9.40;99.90
22682;DHT22;11508;50.856;4.380;2023-02-20T13:58:49;9.50;99.90
22682;DHT22;11508;50.856;4.380;2023-02-20T14:01:15;9.50;99.90
22682;DHT22;11508;50.856;4.380;2023-02-20T14:03:41;9.40;99.90
22682;DHT22;11508;50.856;4.380;2023-02-20T14:08:35;9.40;99.90
22682;DHT22;11508;50.856;4.380;2023-02-20T14:11:31;9.30;99.90
22682;DHT22;11508;50.856;4.380;2023-02-20T14:13:58;9.40;99.90
22682;DHT22;11508;50.856;4.380;2023-02-20T14:16:39;9.40;99.90
22682;DHT22;11508;50.856;4.380;2023-02-20T14:21:37;9.40;99.90
22682;DHT22;11508;50.856;4.380;2023-02-20T14:24:18;9.50;99.90
22682;DHT22;11508;50.856;4.380;2023-02-20T14:26:45;9.70;99.90
22682;DHT22;11508;50.856;4.380;2023-02-20T14:29:38;9.60;99.90
22682;DHT22;11508;50.856;4.380;2023-02-20T14:32:03;9.60;99.90
22682;DHT22;11508;50.856;4.380;2023-02-20T14:34:53;9.60;99.90
22682;DHT22;11508;50.856;4.380;2023-02-20T14:37:45;9.50;99.90
22682;DHT22;11508;50.856;4.380;2023-02-20T14:40:39;9.70;99.90
22682;DHT22;11508;50.856;4.380;2023-02-20T14:43:17;9.60;99.90
22682;DHT22;11508;50.856;4.380;2023-02-20T14:45:46;9.50;99.90
22682;DHT22;11508;50.856;4.380;2023-02-20T14:48:25;9.60;99.90
22682;DHT22;11508;50.856;4.380;2023-02-20T14:51:21;9.70;99.90
22682;DHT22;11508;50.856;4.380;2023-02-20T14:54:00;9.50;99.90
22682;DHT22;11508;50.856;4.380;2023-02-20T14:56:26;9.50;99.90
22682;DHT22;11508;50.856;4.380;2023-02-20T14:58:52;9.50;99.90
22682;DHT22;11508;50.856;4.380;2023-02-20T15:03:58;9.50;99.90
22682;DHT22;11508;50.856;4.380;2023-02-20T15:06:25;9.60;99.90
22682;DHT22;11508;50.856;4.380;2023-02-20T15:08:56;9.70;99.90
22682;DHT22;11508;50.856;4.380;2023-02-20T15:11:23;9.70;99.90
22682;DHT22;11508;50.856;4.380;2023-02-20T15:13:49;9.70;99.90
22682;DHT22;11508;50.856;4.380;2023-02-20T15:16:26;9.60;99.90
22682;DHT22;11508;50.856;4.380;2023-02-20T15:18:53;9.60;99.90
22682;DHT22;11508;50.856;4.380;2023-02-20T15:21:53;9.60;99.90
22682;DHT22;11508;50.856;4.380;2023-02-20T15:24:28;9.60;99.90
22682;DHT22;11508;50.856;4.380;2023-02-20T15:27:09;9.40;99.90
22682;DHT22;11508;50.856;4.380;2023-02-20T15:29:35;9.40;99.90
22682;DHT22;11508;50.856;4.380;2023-02-20T15:32:12;9.60;99.90
22682;DHT22;11508;50.856;4.380;2023-02-20T15:34:39;9.50;99.90
22682;DHT22;11508;50.856;4.380;2023-02-20T15:37:27;9.40;99.90
22682;DHT22;11508;50.856;4.380;2023-02-20T15:39:54;9.40;99.90
22682;DHT22;11508;50.856;4.380;2023-02-20T15:42:22;9.40;99.90
22682;DHT22;11508;50.856;4.380;2023-02-20T15:44:48;9.50;99.90
22682;DHT22;11508;50.856;4.380;2023-02-20T15:47:14;9.40;99.90
22682;DHT22;11508;50.856;4.380;2023-02-20T15:49:40;9.50;99.90
22682;DHT22;11508;50.856;4.380;2023-02-20T15:52:09;9.50;99.90
22682;DHT22;11508;50.856;4.380;2023-02-20T15:54:37;9.40;99.90
22682;DHT22;11508;50.856;4.380;2023-02-20T15:57:12;9.40;99.90
22682;DHT22;11508;50.856;4.380;2023-02-20T15:59:39;9.30;99.90
22682;DHT22;11508;50.856;4.380;2023-02-20T16:02:08;9.30;99.90
22682;DHT22;11508;50.856;4.380;2023-02-20T16:04:34;9.30;99.90
22682;DHT22;11508;50.856;4.380;2023-02-20T16:07:00;9.40;99.90
22682;DHT22;11508;50.856;4.380;2023-02-20T16:09:26;9.40;99.90
22682;DHT22;11508;50.856;4.380;2023-02-20T16:11:51;9.40;99.90
22682;DHT22;11508;50.856;4.380;2023-02-20T16:14:17;9.30;99.90
22682;DHT22;11508;50.856;4.380;2023-02-20T16:16:44;9.20;99.90
22682;DHT22;11508;50.856;4.380;2023-02-20T16:19:19;9.20;99.90
22682;DHT22;11508;50.856;4.380;2023-02-20T16:21:45;9.30;99.90
22682;DHT22;11508;50.856;4.380;2023-02-20T16:24:12;9.30;99.90
22682;DHT22;11508;50.856;4.380;2023-02-20T16:26:39;9.30;99.90
22682;DHT22;11508;50.856;4.380;2023-02-20T16:29:10;9.30;99.90
22682;DHT22;11508;50.856;4.380;2023-02-20T16:34:24;9.40;99.90
22682;DHT22;11508;50.856;4.380;2023-02-20T16:36:51;9.40;99.90
22682;DHT22;11508;50.856;4.380;2023-02-20T16:39:17;9.40;99.90
22682;DHT22;11508;50.856;4.380;2023-02-20T16:41:43;9.40;99.90
22682;DHT22;11508;50.856;4.380;2023-02-20T16:44:12;9.30;99.90
22682;DHT22;11508;50.856;4.380;2023-02-20T16:46:39;9.30;99.90
22682;DHT22;11508;50.856;4.380;2023-02-20T16:49:05;9.30;99.90
22682;DHT22;11508;50.856;4.380;2023-02-20T16:51:31;9.30;99.90
22682;DHT22;11508;50.856;4.380;2023-02-20T16:53:57;9.40;99.90
22682;DHT22;11508;50.856;4.380;2023-02-20T16:56:22;9.60;99.90
22682;DHT22;11508;50.856;4.380;2023-02-20T16:58:48;9.60;99.90
22682;DHT22;11508;50.856;4.380;2023-02-20T17:01:14;9.50;99.90
22682;DHT22;11508;50.856;4.380;2023-02-20T17:03:39;9.40;99.90
22682;DHT22;11508;50.856;4.380;2023-02-20T17:06:05;9.20;99.90
22682;DHT22;11508;50.856;4.380;2023-02-20T17:08:31;9.20;99.90
22682;DHT22;11508;50.856;4.380;2023-02-20T17:10:56;9.20;99.90
22682;DHT22;11508;50.856;4.380;2023-02-20T17:13:22;9.20;99.90
22682;DHT22;11508;50.856;4.380;2023-02-20T17:15:48;9.10;99.90
22682;DHT22;11508;50.856;4.380;2023-02-20T17:18:13;9.10;99.90
22682;DHT22;11508;50.856;4.380;2023-02-20T17:20:39;9.10;99.90
22682;DHT22;11508;50.856;4.380;2023-02-20T17:23:05;9.10;99.90
22682;DHT22;11508;50.856;4.380;2023-02-20T17:25:32;9.20;99.90
22682;DHT22;11508;50.856;4.380;2023-02-20T17:27:59;9.10;99.90
22682;DHT22;11508;50.856;4.380;2023-02-20T17:30:24;9.00;99.90
22682;DHT22;11508;50.856;4.380;2023-02-20T17:32:50;9.00;99.90
22682;DHT22;11508;50.856;4.380;2023-02-20T17:35:16;9.00;99.90
22682;DHT22;11508;50.856;4.380;2023-02-20T17:37:42;9.10;99.90
22682;DHT22;11508;50.856;4.380;2023-02-20T17:40:09;9.10;99.90
22682;DHT22;11508;50.856;4.380;2023-02-20T17:42:35;9.20;99.90
22682;DHT22;11508;50.856;4.380;2023-02-20T17:45:01;9.20;99.90
22682;DHT22;11508;50.856;4.380;2023-02-20T17:47:26;9.20;99.90
22682;DHT22;11508;50.856;4.380;2023-02-20T17:49:53;9.20;99.90
22682;DHT22;11508;50.856;4.380;2023-02-20T17:52:21;9.10;99.90
22682;DHT22;11508;50.856;4.380;2023-02-20T17:54:48;9.10;99.90
22682;DHT22;11508;50.856;4.380;2023-02-20T17:57:15;9.20;99.90
22682;DHT22;11508;50.856;4.380;2023-02-20T17:59:43;9.20;99.90
22682;DHT22;11508;50.856;4.380;2023-02-20T18:02:11;9.20;99.90
22682;DHT22;11508;50.856;4.380;2023-02-20T18:04:37;9.20;99.90
22682;DHT22;11508;50.856;4.380;2023-02-20T18:07:04;9.10;99.90
22682;DHT22;11508;50.856;4.380;2023-02-20T18:09:30;9.10;99.90
22682;DHT22;11508;50.856;4.380;2023-02-20T18:11:57;9.00;99.90
22682;DHT22;11508;50.856;4.380;2023-02-20T18:14:23;9.00;99.90